Time;durP1;ratioP1;P1;durP2;ratioP2;P2;SDS_P1;SDS_P2;PMS_P1;PMS_P2;Temp;Humidity;BMP_temperature;BMP_pressure;BME280_temperature;BME280_humidity;BME280_pressure;Samples;Min_cycle;Max_cycle;Signal;HPM_P1;HPM_P2
2022/04/22 00:01:29;;;;;;;18.48;8.85;;;10.00;99.90;;;;;;5021609;28;20040;-86
2022/04/22 00:03:57;;;;;;;16.90;8.45;;;10.00;99.90;;;;;;5005480;28;20043;-86
2022/04/22 00:06:23;;;;;;;15.63;8.88;;;10.00;99.90;;;;;;4990333;28;20073;-86
2022/04/22 00:08:49;;;;;;;14.20;8.07;;;10.00;99.90;;;;;;5005376;28;20088;-86
2022/04/22 00:11:30;;;;;;;12.02;8.40;;;10.00;99.90;;;;;;5005497;28;20135;-87
2022/04/22 00:14:01;;;;;;;15.70;8.38;;;9.90;99.90;;;;;;5048596;28;20274;-86
2022/04/22 00:16:31;;;;;;;12.52;7.97;;;9.90;99.90;;;;;;5036629;28;20117;-86
2022/04/22 00:18:58;;;;;;;15.45;8.85;;;9.90;99.90;;;;;;5039310;28;20060;-86
2022/04/22 00:21:24;;;;;;;13.00;7.78;;;9.90;99.90;;;;;;5037614;28;20090;-86
2022/04/22 00:23:50;;;;;;;17.00;8.68;;;9.80;99.90;;;;;;5038699;28;20048;-87
2022/04/22 00:26:20;;;;;;;15.15;8.60;;;9.80;99.90;;;;;;5042127;28;20119;-86
2022/04/22 00:28:46;;;;;;;15.35;8.73;;;9.80;99.90;;;;;;5041585;28;20036;-87
2022/04/22 00:31:12;;;;;;;15.80;8.75;;;9.80;99.90;;;;;;5041355;28;20491;-86
2022/04/22 00:33:38;;;;;;;15.55;8.57;;;9.80;99.90;;;;;;5057216;28;20087;-86
2022/04/22 00:36:04;;;;;;;15.13;9.13;;;9.70;99.90;;;;;;5041286;28;20112;-86
2022/04/22 00:38:30;;;;;;;14.40;8.70;;;9.70;99.90;;;;;;5056030;28;20043;-86
2022/04/22 00:40:56;;;;;;;12.50;8.55;;;9.60;99.90;;;;;;5042461;28;20360;-87
2022/04/22 00:43:26;;;;;;;14.52;8.68;;;9.60;99.90;;;;;;5041912;28;20042;-86
2022/04/22 00:45:53;;;;;;;13.57;8.77;;;9.50;99.90;;;;;;5058912;28;20410;-86
2022/04/22 00:48:21;;;;;;;13.75;8.77;;;9.40;99.90;;;;;;5039387;28;20175;-85
2022/04/22 00:50:48;;;;;;;15.63;9.07;;;9.50;99.90;;;;;;5040626;28;20039;-85
2022/04/22 00:53:14;;;;;;;13.10;8.70;;;9.40;99.90;;;;;;5039479;28;20036;-85
2022/04/22 00:55:47;;;;;;;15.50;8.50;;;9.30;99.90;;;;;;5057499;28;20392;-87
2022/04/22 00:58:16;;;;;;;17.23;9.40;;;9.40;99.90;;;;;;5039946;28;20119;-85
2022/04/22 01:00:42;;;;;;;12.38;9.30;;;9.30;99.90;;;;;;5041173;28;20072;-86
2022/04/22 01:03:11;;;;;;;13.23;9.55;;;9.30;99.90;;;;;;5057118;28;20597;-85
2022/04/22 01:11:11;;;;;;;14.30;9.73;;;9.20;99.90;;;;;;5057347;28;20043;-86
2022/04/22 01:13:36;;;;;;;17.20;10.02;;;9.20;99.90;;;;;;5040259;28;20514;-85
2022/04/22 01:16:03;;;;;;;15.48;9.40;;;9.20;99.90;;;;;;5039775;28;20080;-85
2022/04/22 01:18:29;;;;;;;16.42;9.98;;;9.20;99.90;;;;;;5055123;28;20120;-86
2022/04/22 01:21:00;;;;;;;17.30;9.75;;;9.10;99.90;;;;;;5039864;28;20127;-86
2022/04/22 01:23:26;;;;;;;17.52;8.75;;;9.10;99.90;;;;;;5041111;28;20146;-86
2022/04/22 01:25:53;;;;;;;15.50;9.10;;;9.10;99.90;;;;;;5057073;28;20516;-85
2022/04/22 01:28:20;;;;;;;14.95;8.70;;;9.00;99.90;;;;;;5037797;28;20132;-86
2022/04/22 01:30:46;;;;;;;15.32;9.10;;;9.00;99.90;;;;;;5041427;28;20087;-85
2022/04/22 01:33:11;;;;;;;14.57;9.68;;;9.00;99.90;;;;;;5038912;28;20472;-86
2022/04/22 01:35:37;;;;;;;16.08;8.98;;;8.90;99.90;;;;;;5039236;28;20090;-86
2022/04/22 01:38:03;;;;;;;16.42;9.40;;;8.90;99.90;;;;;;5040175;28;20064;-86
2022/04/22 01:40:29;;;;;;;17.02;9.68;;;8.90;99.90;;;;;;5056006;28;20159;-85
2022/04/22 01:42:55;;;;;;;14.88;9.05;;;8.80;99.90;;;;;;5038776;28;20041;-85
2022/04/22 01:45:21;;;;;;;13.40;9.20;;;8.80;99.90;;;;;;5039671;28;20132;-86
2022/04/22 01:47:47;;;;;;;16.05;9.15;;;8.80;99.90;;;;;;5038317;28;20155;-85
2022/04/22 01:50:13;;;;;;;12.13;8.55;;;8.70;99.90;;;;;;5038658;28;20045;-85
2022/04/22 01:52:41;;;;;;;15.85;9.05;;;8.70;99.90;;;;;;5042628;28;20080;-86
2022/04/22 01:55:07;;;;;;;14.52;8.85;;;8.60;99.90;;;;;;5041215;28;20519;-86
2022/04/22 01:57:32;;;;;;;14.23;9.18;;;8.70;99.90;;;;;;5056409;28;20480;-85
2022/04/22 02:00:01;;;;;;;16.38;8.50;;;8.60;99.90;;;;;;5056658;28;20029;-85
2022/04/22 02:02:27;;;;;;;15.15;7.90;;;8.70;99.90;;;;;;5039706;28;20064;-86
2022/04/22 02:04:53;;;;;;;12.52;8.02;;;8.60;99.90;;;;;;5039601;28;20112;-86
2022/04/22 02:07:19;;;;;;;14.63;9.07;;;8.60;99.90;;;;;;5057531;28;20048;-85
2022/04/22 02:09:44;;;;;;;12.60;7.97;;;8.60;99.90;;;;;;5038173;28;20059;-84
2022/04/22 02:12:10;;;;;;;12.07;8.18;;;8.60;99.90;;;;;;5042339;28;20656;-85
2022/04/22 02:14:38;;;;;;;13.98;8.07;;;8.60;99.90;;;;;;5055086;28;20472;-86
2022/04/22 02:17:04;;;;;;;13.35;7.68;;;8.60;99.90;;;;;;5059034;28;20115;-85
2022/04/22 02:19:30;;;;;;;13.88;7.65;;;8.60;99.90;;;;;;5057130;28;20036;-86
2022/04/22 02:21:56;;;;;;;14.35;8.00;;;8.60;99.90;;;;;;5045256;28;20041;-85
2022/04/22 02:24:21;;;;;;;12.25;6.97;;;8.50;99.90;;;;;;5055319;28;20248;-85
2022/04/22 02:29:31;;;;;;;11.45;6.70;;;8.50;99.90;;;;;;5059573;28;20562;-86
2022/04/22 02:31:57;;;;;;;9.60;7.20;;;8.40;99.90;;;;;;5043131;28;20044;-85
2022/04/22 02:34:23;;;;;;;9.88;6.07;;;8.40;99.90;;;;;;5056239;28;20385;-85
2022/04/22 02:36:50;;;;;;;10.98;6.85;;;8.40;99.90;;;;;;5045284;28;20812;-86
2022/04/22 02:39:17;;;;;;;9.82;6.35;;;8.40;99.90;;;;;;5042264;28;20039;-85
2022/04/22 02:47:12;;;;;;;11.27;6.25;;;8.30;99.90;;;;;;5060000;28;20502;-85
2022/04/22 02:49:38;;;;;;;8.40;6.20;;;8.30;99.90;;;;;;5055819;28;20119;-86
2022/04/22 02:52:05;;;;;;;10.98;6.78;;;8.30;99.90;;;;;;5044779;28;20044;-85
2022/04/22 02:54:31;;;;;;;10.13;6.43;;;8.30;99.90;;;;;;5041731;28;20131;-85
2022/04/22 02:56:57;;;;;;;11.98;6.18;;;8.30;99.90;;;;;;5044996;28;20533;-85
2022/04/22 02:59:27;;;;;;;9.10;6.15;;;8.20;99.90;;;;;;5057093;28;20036;-86
2022/04/22 03:01:54;;;;;;;14.13;6.65;;;8.10;99.90;;;;;;5043226;28;20039;-85
2022/04/22 03:04:19;;;;;;;11.88;6.25;;;8.10;99.90;;;;;;5040026;28;20090;-85
2022/04/22 03:06:45;;;;;;;10.38;6.00;;;8.10;99.90;;;;;;5052143;28;20083;-85
2022/04/22 03:09:11;;;;;;;12.00;6.75;;;8.10;99.90;;;;;;5057225;28;20037;-85
2022/04/22 03:11:37;;;;;;;9.80;6.15;;;8.10;99.90;;;;;;5038133;28;20044;-85
2022/04/22 03:14:05;;;;;;;8.13;6.70;;;8.10;99.90;;;;;;5036950;28;20044;-85
2022/04/22 03:16:32;;;;;;;9.82;6.65;;;8.00;99.90;;;;;;5041564;28;20045;-86
2022/04/22 03:18:59;;;;;;;11.65;6.50;;;8.00;99.90;;;;;;5062121;28;20045;-85
2022/04/22 03:21:25;;;;;;;10.40;6.53;;;8.00;99.90;;;;;;5043289;28;20082;-84
2022/04/22 03:23:56;;;;;;;10.20;6.85;;;8.00;99.90;;;;;;5024996;28;20104;-84
2022/04/22 03:26:25;;;;;;;9.07;6.70;;;8.00;99.90;;;;;;5019734;28;20044;-85
2022/04/22 03:28:52;;;;;;;10.43;6.60;;;7.90;99.90;;;;;;5043483;28;20055;-86
2022/04/22 03:31:19;;;;;;;10.32;6.85;;;7.90;99.90;;;;;;5025048;28;20074;-85
2022/04/22 03:33:45;;;;;;;9.30;6.43;;;7.90;99.90;;;;;;5025598;28;20120;-85
2022/04/22 03:36:12;;;;;;;10.57;6.45;;;7.90;99.90;;;;;;5027254;28;20076;-85
2022/04/22 03:38:40;;;;;;;13.68;7.32;;;7.90;99.90;;;;;;5030095;28;20385;-85
2022/04/22 03:41:06;;;;;;;8.98;6.93;;;7.90;99.90;;;;;;5027782;28;20036;-85
2022/04/22 03:43:32;;;;;;;10.50;7.28;;;7.90;99.90;;;;;;5028034;28;20598;-86
2022/04/22 03:45:59;;;;;;;14.18;6.97;;;7.80;99.90;;;;;;5028225;28;20467;-85
2022/04/22 03:48:25;;;;;;;10.93;6.85;;;7.80;99.90;;;;;;5023477;28;20043;-85
2022/04/22 03:50:50;;;;;;;12.07;7.10;;;7.80;99.90;;;;;;5027528;28;20032;-85
2022/04/22 03:53:19;;;;;;;10.85;6.88;;;7.80;99.90;;;;;;5044265;28;20040;-85
2022/04/22 03:55:44;;;;;;;9.65;6.43;;;7.70;99.90;;;;;;5022760;28;20320;-85
2022/04/22 03:58:11;;;;;;;9.60;6.35;;;7.80;99.90;;;;;;5027025;28;20052;-85
2022/04/22 04:00:50;;;;;;;8.63;6.55;;;7.70;99.90;;;;;;5026509;28;20036;-85
2022/04/22 04:03:21;;;;;;;8.63;6.25;;;7.60;99.90;;;;;;5019979;28;20075;-86
2022/04/22 04:05:49;;;;;;;10.13;6.53;;;7.70;99.90;;;;;;5048045;28;20487;-86
2022/04/22 04:08:16;;;;;;;9.95;6.75;;;7.60;99.90;;;;;;5016286;28;20052;-85
2022/04/22 04:16:11;;;;;;;9.85;6.93;;;7.60;99.90;;;;;;5045112;28;20123;-86
2022/04/22 04:18:38;;;;;;;10.55;6.82;;;7.60;99.90;;;;;;5026665;28;20083;-85
2022/04/22 04:23:51;;;;;;;11.52;6.15;;;7.60;99.90;;;;;;5045129;28;20110;-85
2022/04/22 04:26:18;;;;;;;11.02;7.03;;;7.60;99.90;;;;;;5025167;28;20043;-86
2022/04/22 04:28:47;;;;;;;8.88;6.80;;;7.50;99.90;;;;;;5025748;28;20096;-85
2022/04/22 04:31:13;;;;;;;11.10;7.03;;;7.50;99.90;;;;;;5028770;28;20581;-85
2022/04/22 04:33:40;;;;;;;10.93;6.40;;;7.50;99.90;;;;;;5030036;28;20025;-84
2022/04/22 04:36:09;;;;;;;10.85;6.20;;;7.50;99.90;;;;;;5017551;28;20039;-85
2022/04/22 04:38:37;;;;;;;8.82;6.70;;;7.50;99.90;;;;;;5041334;28;20093;-84
2022/04/22 04:41:03;;;;;;;10.50;6.50;;;7.40;99.90;;;;;;5052614;28;20048;-85
2022/04/22 04:43:29;;;;;;;9.00;6.18;;;7.50;99.90;;;;;;5040651;28;20040;-85
2022/04/22 04:45:55;;;;;;;8.02;6.47;;;7.50;99.90;;;;;;5021547;28;20093;-85
2022/04/22 04:48:21;;;;;;;8.57;6.38;;;7.50;99.90;;;;;;5024978;28;20080;-85
2022/04/22 04:50:47;;;;;;;9.57;6.30;;;7.50;99.90;;;;;;5022593;28;20048;-85
2022/04/22 04:53:13;;;;;;;9.55;6.53;;;7.50;99.90;;;;;;5043430;28;20472;-86
2022/04/22 04:55:40;;;;;;;9.90;6.47;;;7.50;99.90;;;;;;5025680;28;20206;-86
2022/04/22 04:58:06;;;;;;;9.38;6.28;;;7.50;99.90;;;;;;5028417;28;20043;-85
2022/04/22 05:00:39;;;;;;;8.07;5.88;;;7.50;99.90;;;;;;5106661;27;20676;-86
2022/04/22 05:03:05;;;;;;;10.05;6.75;;;7.60;99.90;;;;;;5086427;28;20118;-86
2022/04/22 05:05:31;;;;;;;9.90;6.70;;;7.60;99.90;;;;;;5087389;28;20477;-86
2022/04/22 05:07:59;;;;;;;7.97;6.15;;;7.60;99.90;;;;;;5085294;28;20038;-85
2022/04/22 05:10:27;;;;;;;8.70;6.25;;;7.60;99.90;;;;;;5089661;28;20039;-85
2022/04/22 05:12:54;;;;;;;9.10;6.30;;;7.70;99.90;;;;;;5082940;28;20420;-86
2022/04/22 05:15:22;;;;;;;12.05;6.28;;;7.70;99.90;;;;;;5089250;28;20033;-86
2022/04/22 05:17:51;;;;;;;8.52;6.00;;;7.70;99.90;;;;;;5084687;28;20459;-86
2022/04/22 05:20:20;;;;;;;7.97;5.93;;;7.80;99.90;;;;;;5089356;28;20112;-85
2022/04/22 05:22:46;;;;;;;9.95;6.00;;;7.90;99.90;;;;;;5075771;28;20118;-86
2022/04/22 05:25:13;;;;;;;9.23;6.55;;;7.90;99.90;;;;;;5102243;28;20467;-85
2022/04/22 05:27:42;;;;;;;12.18;5.70;;;7.90;99.90;;;;;;5070185;28;20062;-86
2022/04/22 05:32:54;;;;;;;6.93;5.28;;;8.10;99.90;;;;;;5100372;28;20055;-86
2022/04/22 05:35:21;;;;;;;7.35;5.43;;;8.10;99.90;;;;;;5069993;28;20028;-85
2022/04/22 05:37:53;;;;;;;5.95;4.68;;;8.10;99.90;;;;;;5088246;28;20050;-86
2022/04/22 05:40:20;;;;;;;6.68;5.20;;;8.20;99.90;;;;;;5088873;28;20048;-86
2022/04/22 05:42:47;;;;;;;12.35;5.60;;;8.20;99.90;;;;;;5073624;28;20108;-85
2022/04/22 05:45:14;;;;;;;8.98;5.32;;;8.30;99.90;;;;;;5102737;27;20507;-86
2022/04/22 05:47:41;;;;;;;10.18;6.00;;;8.30;99.90;;;;;;5067161;28;20059;-86
2022/04/22 05:50:09;;;;;;;10.13;5.35;;;8.40;99.90;;;;;;5067104;28;20097;-86
2022/04/22 05:52:37;;;;;;;10.82;5.40;;;8.40;94.90;;;;;;5075385;28;20454;-86
2022/04/22 05:55:05;;;;;;;7.55;4.90;;;8.50;78.80;;;;;;5067856;28;20170;-86
2022/04/22 05:57:31;;;;;;;9.98;4.97;;;8.50;92.30;;;;;;5075346;28;20493;-86
2022/04/22 05:59:59;;;;;;;8.07;4.45;;;8.60;91.10;;;;;;5083333;28;20098;-86
2022/04/22 06:02:26;;;;;;;7.57;4.68;;;8.60;57.60;;;;;;5068099;28;20251;-86
2022/04/22 06:04:52;;;;;;;7.85;4.60;;;8.60;50.30;;;;;;5095915;28;20514;-86
2022/04/22 06:07:18;;;;;;;6.57;4.25;;;8.70;46.30;;;;;;5084292;28;20108;-86
2022/04/22 06:12:29;;;;;;;8.00;4.57;;;8.80;8.40;;;;;;5074657;28;20056;-86
2022/04/22 06:14:56;;;;;;;7.63;4.40;;;8.90;20.30;;;;;;5063253;28;20040;-85
2022/04/22 06:17:22;;;;;;;5.65;4.13;;;8.90;3.20;;;;;;5060589;28;20550;-86
2022/04/22 06:19:47;;;;;;;8.95;4.20;;;9.00;1.00;;;;;;5071624;28;20051;-86
2022/04/22 06:22:13;;;;;;;7.00;4.43;;;9.00;1.00;;;;;;5072526;28;20115;-85
2022/04/22 06:24:39;;;;;;;5.68;4.20;;;9.10;1.00;;;;;;5074022;28;20033;-86
2022/04/22 06:27:04;;;;;;;6.35;4.10;;;9.10;1.00;;;;;;5078720;28;20036;-86
2022/04/22 06:29:30;;;;;;;5.25;4.20;;;9.30;1.00;;;;;;5087314;28;20105;-86
2022/04/22 06:31:59;;;;;;;6.35;3.65;;;9.30;1.00;;;;;;5061317;28;20028;-86
2022/04/22 06:34:25;;;;;;;5.43;3.75;;;9.40;1.00;;;;;;5067341;28;20032;-86
2022/04/22 06:36:51;;;;;;;5.60;4.20;;;9.50;1.00;;;;;;5066039;28;20075;-85
2022/04/22 06:39:17;;;;;;;7.53;3.70;;;9.50;1.00;;;;;;5056106;28;20458;-86
2022/04/22 06:47:12;;;;;;;5.25;3.58;;;9.70;1.00;;;;;;5071845;28;20475;-86
2022/04/22 06:49:38;;;;;;;7.97;3.88;;;9.90;1.00;;;;;;5069127;28;20528;-86
2022/04/22 06:52:06;;;;;;;6.68;3.70;;;10.00;1.00;;;;;;5061429;28;20040;-86
2022/04/22 06:54:32;;;;;;;6.05;3.55;;;10.00;1.00;;;;;;5067715;28;20063;-85
2022/04/22 06:57:00;;;;;;;7.25;3.58;;;9.90;1.00;;;;;;5056688;28;20420;-86
2022/04/22 06:59:27;;;;;;;4.63;3.20;;;10.10;1.00;;;;;;5068922;28;20136;-86
2022/04/22 07:01:53;;;;;;;6.57;3.28;;;10.10;1.00;;;;;;5056045;28;20137;-85
2022/04/22 07:04:19;;;;;;;4.63;3.28;;;10.20;1.00;;;;;;5071212;28;20075;-85
2022/04/22 07:06:45;;;;;;;5.40;3.53;;;10.30;1.00;;;;;;5055087;28;20040;-86
2022/04/22 07:09:12;;;;;;;5.30;3.55;;;10.30;1.00;;;;;;5075841;28;20119;-86
2022/04/22 07:11:41;;;;;;;7.68;3.22;;;10.30;1.00;;;;;;5060498;28;20107;-86
2022/04/22 07:14:07;;;;;;;4.25;3.20;;;10.40;1.00;;;;;;5060452;28;20115;-85
2022/04/22 07:16:33;;;;;;;5.93;3.60;;;10.60;1.00;;;;;;5068443;28;20219;-86
2022/04/22 07:18:59;;;;;;;3.75;3.13;;;10.50;1.00;;;;;;5082389;28;20119;-86
2022/04/22 07:21:26;;;;;;;6.85;3.33;;;10.60;1.00;;;;;;5068969;28;20089;-86
2022/04/22 07:23:53;;;;;;;7.32;4.18;;;10.60;1.00;;;;;;5045957;28;20379;-86
2022/04/22 07:26:23;;;;;;;6.28;3.63;;;10.60;1.00;;;;;;5066614;28;20041;-86
2022/04/22 07:28:50;;;;;;;9.10;3.40;;;10.80;1.00;;;;;;5069698;28;20111;-85
2022/04/22 07:31:20;;;;;;;4.60;3.58;;;10.70;99.90;;;;;;5064525;28;20530;-86
2022/04/22 07:33:46;;;;;;;6.45;3.35;;;10.80;99.90;;;;;;5068056;28;20115;-86
2022/04/22 07:36:12;;;;;;;4.60;3.45;;;10.70;99.90;;;;;;5066244;28;20442;-86
2022/04/22 07:38:37;;;;;;;6.63;3.63;;;10.80;99.90;;;;;;5057874;28;20506;-85
2022/04/22 07:41:07;;;;;;;6.75;3.53;;;10.90;1.00;;;;;;5069942;28;20116;-86
2022/04/22 07:49:04;;;;;;;6.22;3.60;;;11.20;1.00;;;;;;5067089;28;20509;-86
2022/04/22 07:51:30;;;;;;;6.88;3.67;;;11.30;99.90;;;;;;5058753;28;20078;-86
2022/04/22 07:53:56;;;;;;;8.13;3.35;;;11.30;99.90;;;;;;5057726;28;20071;-87
2022/04/22 07:56:22;;;;;;;7.78;3.70;;;11.50;99.90;;;;;;5069780;28;20080;-85
2022/04/22 07:58:48;;;;;;;6.10;3.90;;;11.40;99.90;;;;;;5083294;28;20060;-86
2022/04/22 08:01:13;;;;;;;5.65;4.00;;;11.60;99.90;;;;;;5073206;28;20078;-86
2022/04/22 08:03:42;;;;;;;5.72;4.07;;;11.50;99.90;;;;;;5069680;28;20048;-87
2022/04/22 08:06:10;;;;;;;7.07;3.85;;;11.50;99.90;;;;;;5057616;28;20068;-85
2022/04/22 08:08:36;;;;;;;8.18;4.03;;;11.50;99.90;;;;;;5073543;28;20050;-86
2022/04/22 08:11:02;;;;;;;5.97;3.72;;;11.70;99.90;;;;;;5055142;28;20052;-85
2022/04/22 08:13:28;;;;;;;6.15;3.53;;;11.90;99.90;;;;;;5068590;28;20046;-85
2022/04/22 08:15:54;;;;;;;5.13;3.75;;;12.00;99.90;;;;;;5072532;28;20036;-85
2022/04/22 08:18:19;;;;;;;5.10;3.42;;;11.90;99.90;;;;;;5064252;28;20075;-87
2022/04/22 08:20:45;;;;;;;4.95;3.75;;;12.00;99.90;;;;;;5069196;28;20530;-85
2022/04/22 08:23:11;;;;;;;5.53;3.35;;;12.10;99.90;;;;;;5061388;28;20048;-86
2022/04/22 08:25:37;;;;;;;5.53;3.80;;;12.20;99.90;;;;;;5058054;28;20119;-86
2022/04/22 08:28:04;;;;;;;5.93;3.40;;;12.10;99.90;;;;;;5057708;28;20573;-85
2022/04/22 08:30:30;;;;;;;6.55;3.67;;;12.40;99.90;;;;;;5090119;28;20334;-86
2022/04/22 08:32:56;;;;;;;7.88;3.80;;;12.50;99.90;;;;;;5056017;28;20112;-86
2022/04/22 08:35:23;;;;;;;5.95;3.13;;;12.60;99.90;;;;;;5067050;28;20356;-86
2022/04/22 08:37:51;;;;;;;4.97;3.30;;;12.70;99.90;;;;;;5065056;28;20048;-86
2022/04/22 08:40:16;;;;;;;4.72;3.03;;;12.90;99.90;;;;;;5070906;28;20928;-86
2022/04/22 08:42:45;;;;;;;5.03;2.80;;;13.00;99.90;;;;;;5057671;28;20040;-86
2022/04/22 08:45:11;;;;;;;5.40;3.05;;;12.90;99.90;;;;;;5055124;28;20684;-85
2022/04/22 08:50:25;;;;;;;7.25;3.40;;;13.00;99.90;;;;;;5072087;28;20490;-86
2022/04/22 08:53:03;;;;;;;5.85;3.08;;;13.20;99.90;;;;;;5061533;28;20084;-86
2022/04/22 08:55:30;;;;;;;4.57;3.03;;;13.30;99.90;;;;;;5074705;28;20429;-85
2022/04/22 08:57:56;;;;;;;5.20;3.35;;;13.40;99.90;;;;;;5057636;28;20135;-85
2022/04/22 09:00:22;;;;;;;7.70;3.30;;;13.60;99.90;;;;;;5066760;28;20052;-85
2022/04/22 09:02:54;;;;;;;5.00;3.03;;;13.40;99.90;;;;;;5056201;28;20399;-86
2022/04/22 09:05:20;;;;;;;6.40;3.30;;;13.70;99.90;;;;;;5058938;28;20653;-85
2022/04/22 09:07:47;;;;;;;4.40;3.10;;;13.70;99.90;;;;;;5052763;28;20055;-86
2022/04/22 09:10:13;;;;;;;4.60;3.40;;;13.80;99.90;;;;;;5049917;28;20045;-86
2022/04/22 09:12:43;;;;;;;5.35;3.55;;;14.10;99.90;;;;;;5071764;28;20036;-86
2022/04/22 09:15:11;;;;;;;5.07;3.25;;;14.00;99.90;;;;;;5056208;28;20348;-88
2022/04/22 09:17:38;;;;;;;6.20;3.20;;;14.20;99.90;;;;;;5062753;28;20044;-85
2022/04/22 09:20:04;;;;;;;6.80;3.35;;;14.40;99.90;;;;;;5065110;28;20177;-86
2022/04/22 09:22:35;;;;;;;5.35;2.95;;;14.30;99.90;;;;;;5054362;28;20523;-86
2022/04/22 09:25:01;;;;;;;5.20;3.30;;;14.40;99.90;;;;;;5055726;28;20460;-86
2022/04/22 09:27:35;;;;;;;5.25;3.08;;;14.50;99.90;;;;;;5068541;28;20045;-85
2022/04/22 09:30:09;;;;;;;12.02;3.40;;;14.30;99.90;;;;;;5068829;28;20033;-86
2022/04/22 09:32:38;;;;;;;5.75;3.05;;;14.50;99.90;;;;;;5053836;28;20736;-86
2022/04/22 09:35:16;;;;;;;5.45;3.30;;;14.60;99.90;;;;;;5072286;28;20059;-87
2022/04/22 09:43:38;;;;;;;4.13;3.05;;;14.80;99.90;;;;;;5071253;28;20367;-86
2022/04/22 09:46:19;;;;;;;6.57;3.20;;;15.00;99.90;;;;;;5057993;28;20033;-86
2022/04/22 09:48:52;;;;;;;5.18;3.25;;;15.10;99.90;;;;;;5074739;28;20106;-86
2022/04/22 09:51:24;;;;;;;7.43;2.90;;;15.20;99.90;;;;;;5070548;28;20398;-86
2022/04/22 09:54:01;;;;;;;4.82;2.92;;;15.30;99.90;;;;;;5055243;28;20124;-86
2022/04/22 09:56:28;;;;;;;4.82;3.30;;;15.50;99.90;;;;;;5050477;28;20050;-86
2022/04/22 09:58:54;;;;;;;4.93;2.90;;;15.50;99.90;;;;;;5073557;28;20048;-86
2022/04/22 10:01:19;;;;;;;6.25;2.88;;;15.60;99.90;;;;;;5072239;28;20494;-86
2022/04/22 10:03:46;;;;;;;4.13;3.55;;;15.70;99.90;;;;;;5076300;28;20039;-86
2022/04/22 10:06:12;;;;;;;8.52;3.00;;;15.60;99.90;;;;;;5063698;28;20046;-86
2022/04/22 10:08:39;;;;;;;5.75;2.90;;;15.80;99.90;;;;;;5072921;28;20028;-86
2022/04/22 10:11:10;;;;;;;8.75;3.30;;;16.00;99.90;;;;;;5081566;28;20125;-86
2022/04/22 10:13:46;;;;;;;6.00;3.60;;;16.30;99.90;;;;;;5054038;28;20391;-86
2022/04/22 10:16:15;;;;;;;5.30;3.42;;;16.40;99.90;;;;;;5058467;28;20086;-86
2022/04/22 10:18:42;;;;;;;6.45;3.22;;;16.20;99.90;;;;;;5070313;28;20447;-86
2022/04/22 10:21:09;;;;;;;5.38;3.28;;;16.30;99.90;;;;;;5074613;28;20036;-86
2022/04/22 10:23:36;;;;;;;5.30;3.22;;;16.40;99.90;;;;;;5072683;28;20044;-85
2022/04/22 10:26:02;;;;;;;11.40;3.55;;;16.30;99.90;;;;;;5075128;28;20047;-86
2022/04/22 10:28:29;;;;;;;7.10;3.33;;;16.40;99.90;;;;;;5075185;28;20040;-86
2022/04/22 10:31:00;;;;;;;6.75;3.45;;;16.30;99.90;;;;;;5060279;28;20024;-86
2022/04/22 10:33:40;;;;;;;8.15;3.75;;;16.50;99.90;;;;;;5054166;28;20040;-86
2022/04/22 10:36:06;;;;;;;6.60;3.67;;;16.40;99.90;;;;;;5070933;28;20043;-86
2022/04/22 10:38:38;;;;;;;6.55;3.50;;;16.60;99.90;;;;;;5067216;28;20414;-86
2022/04/22 10:41:24;;;;;;;5.88;4.10;;;16.60;99.90;;;;;;5073706;28;20044;-86
2022/04/22 10:49:35;;;;;;;6.78;3.72;;;16.90;99.90;;;;;;5064031;28;20113;-86
2022/04/22 10:52:19;;;;;;;5.40;3.60;;;17.00;99.90;;;;;;5074254;28;20048;-86
2022/04/22 10:54:58;;;;;;;8.32;3.90;;;16.90;99.90;;;;;;5068685;28;20503;-86
2022/04/22 10:57:33;;;;;;;6.60;4.03;;;17.00;99.90;;;;;;5071342;28;20044;-86
2022/04/22 11:00:27;;;;;;;10.45;4.20;;;17.10;99.90;;;;;;5070759;28;20431;-86
2022/04/22 11:03:02;;;;;;;5.00;3.92;;;17.00;99.90;;;;;;5063666;28;20136;-87
2022/04/22 11:05:30;;;;;;;5.53;3.58;;;17.50;99.90;;;;;;5067697;28;20087;-86
2022/04/22 11:08:01;;;;;;;6.25;4.28;;;17.50;99.90;;;;;;5067680;28;20336;-87
2022/04/22 11:10:51;;;;;;;7.45;4.50;;;17.50;99.90;;;;;;5071833;28;20119;-87
2022/04/22 11:13:32;;;;;;;5.30;3.85;;;17.50;99.90;;;;;;5056233;28;20035;-87
2022/04/22 11:16:07;;;;;;;5.68;3.90;;;17.20;99.90;;;;;;5074371;28;20039;-86
2022/04/22 11:18:41;;;;;;;4.80;3.88;;;17.00;99.90;;;;;;5075439;28;20139;-86
2022/04/22 11:21:33;;;;;;;6.22;4.00;;;17.60;99.90;;;;;;5057520;28;20032;-86
2022/04/22 11:23:59;;;;;;;6.32;4.05;;;17.80;99.90;;;;;;5066387;28;20169;-86
2022/04/22 11:26:25;;;;;;;6.00;3.95;;;17.90;99.90;;;;;;5070830;28;20246;-86
2022/04/22 11:28:51;;;;;;;5.00;3.70;;;18.00;99.90;;;;;;5074740;28;20091;-86
2022/04/22 11:31:21;;;;;;;8.25;3.70;;;18.20;99.90;;;;;;5077261;28;20063;-86
2022/04/22 11:33:57;;;;;;;7.05;4.32;;;18.20;99.90;;;;;;5051381;28;20777;-86
2022/04/22 11:36:24;;;;;;;5.70;3.75;;;18.40;99.90;;;;;;5054654;28;20036;-86
2022/04/22 11:38:56;;;;;;;7.38;4.10;;;18.40;99.90;;;;;;5071104;28;20060;-86
2022/04/22 11:41:22;;;;;;;5.78;3.85;;;18.60;99.90;;;;;;5053003;28;20094;-88
2022/04/22 11:43:49;;;;;;;4.70;3.67;;;18.70;99.90;;;;;;5066471;28;20402;-86
2022/04/22 11:46:17;;;;;;;6.45;4.10;;;18.50;99.90;;;;;;5070365;28;20131;-85
2022/04/22 11:48:50;;;;;;;4.80;3.55;;;18.20;99.90;;;;;;5056068;28;20040;-86
2022/04/22 11:51:18;;;;;;;7.05;4.03;;;18.70;99.90;;;;;;5068972;28;20032;-86
2022/04/22 11:53:52;;;;;;;7.28;4.13;;;18.60;99.90;;;;;;5057493;28;20036;-86
2022/04/22 11:56:19;;;;;;;5.50;4.20;;;18.80;99.90;;;;;;5059260;28;20047;-86
2022/04/22 11:58:47;;;;;;;4.43;3.85;;;18.80;99.90;;;;;;5053541;28;20056;-86
2022/04/22 12:06:58;;;;;;;4.60;3.92;;;19.30;99.90;;;;;;5038202;28;20051;-85
2022/04/22 12:09:25;;;;;;;6.32;4.03;;;19.40;99.90;;;;;;5074384;28;20044;-87
2022/04/22 12:11:51;;;;;;;6.70;4.38;;;19.50;99.90;;;;;;5092332;28;20246;-87
2022/04/22 12:14:28;;;;;;;7.63;4.10;;;19.50;99.90;;;;;;5070941;28;20040;-86
2022/04/22 12:16:58;;;;;;;6.28;4.50;;;19.70;99.90;;;;;;5072848;28;20036;-87
2022/04/22 12:19:28;;;;;;;6.30;4.32;;;20.00;99.90;;;;;;5065342;28;20376;-87
2022/04/22 12:21:54;;;;;;;5.15;4.00;;;19.80;99.90;;;;;;5066528;28;20267;-86
2022/04/22 12:24:23;;;;;;;8.45;4.60;;;20.00;99.90;;;;;;5061663;28;20090;-86
2022/04/22 12:26:51;;;;;;;5.72;4.50;;;20.10;99.90;;;;;;5055669;28;20127;-87
2022/04/22 12:29:23;;;;;;;7.30;4.53;;;20.10;99.90;;;;;;5057939;28;20042;-86
2022/04/22 12:31:54;;;;;;;7.78;4.28;;;20.10;99.90;;;;;;5087117;28;20043;-86
2022/04/22 12:34:32;;;;;;;5.95;4.88;;;20.00;99.90;;;;;;5053000;28;20099;-86
2022/04/22 12:36:59;;;;;;;7.85;4.30;;;20.00;99.90;;;;;;5075034;28;20848;-86
2022/04/22 12:39:38;;;;;;;6.22;4.20;;;20.20;99.90;;;;;;5053482;28;20387;-86
2022/04/22 12:42:26;;;;;;;7.07;4.68;;;20.50;99.90;;;;;;5066587;28;20512;-86
2022/04/22 12:54:04;;;;;;;6.85;4.50;;;19.60;99.90;;;;;;5073778;28;20286;-87
2022/04/22 12:56:37;;;;;;;7.18;4.30;;;20.10;99.90;;;;;;5063905;28;20461;-86
2022/04/22 12:59:04;;;;;;;9.10;4.22;;;20.20;99.90;;;;;;5073467;28;20048;-85
2022/04/22 13:01:38;;;;;;;7.43;4.40;;;20.50;99.90;;;;;;5064996;28;20032;-86
2022/04/22 13:04:18;;;;;;;9.73;4.95;;;20.90;99.90;;;;;;5067581;28;20037;-86
2022/04/22 13:06:48;;;;;;;7.00;4.95;;;20.70;99.90;;;;;;5074313;28;20097;-86
2022/04/22 13:09:16;;;;;;;7.05;4.55;;;21.00;99.90;;;;;;5064360;28;20063;-86
2022/04/22 13:11:46;;;;;;;8.05;5.07;;;21.40;99.90;;;;;;5067685;28;20095;-86
2022/04/22 13:14:12;;;;;;;8.55;5.05;;;21.70;99.90;;;;;;5054901;28;20360;-86
2022/04/22 13:16:38;;;;;;;6.82;4.68;;;21.20;99.90;;;;;;5060626;28;20059;-86
2022/04/22 13:19:04;;;;;;;7.10;5.85;;;22.00;99.90;;;;;;5066556;28;20043;-87
2022/04/22 13:21:30;;;;;;;7.78;5.35;;;22.00;99.90;;;;;;5070834;28;20043;-88
2022/04/22 13:24:00;;;;;;;7.15;5.13;;;21.90;99.90;;;;;;5064538;28;20464;-87
2022/04/22 13:26:26;;;;;;;7.60;5.07;;;22.20;99.90;;;;;;5070369;28;20053;-86
2022/04/22 13:28:54;;;;;;;10.63;5.05;;;22.60;99.90;;;;;;5069975;28;20040;-87
2022/04/22 13:31:20;;;;;;;7.88;4.82;;;22.70;99.90;;;;;;5073842;28;20227;-86
2022/04/22 13:33:45;;;;;;;6.70;4.57;;;22.90;99.90;;;;;;5057881;28;20588;-87
2022/04/22 13:36:12;;;;;;;6.05;4.95;;;23.40;99.90;;;;;;5086766;28;20059;-86
2022/04/22 13:38:43;;;;;;;9.35;5.20;;;22.00;99.90;;;;;;5059673;28;20588;-87
2022/04/22 13:41:09;;;;;;;8.00;4.90;;;21.30;99.90;;;;;;5076166;28;20477;-87
2022/04/22 13:43:35;;;;;;;7.43;5.07;;;20.40;99.90;;;;;;5062335;28;20028;-87
2022/04/22 13:54:17;;;;;;;7.68;5.47;;;19.60;99.90;;;;;;5071696;28;20040;-87
2022/04/22 13:56:43;;;;;;;6.75;5.38;;;19.30;99.90;;;;;;5087497;28;20238;-87
2022/04/22 13:59:12;;;;;;;6.35;4.70;;;20.60;99.90;;;;;;5074689;28;20591;-87
2022/04/22 14:01:38;;;;;;;10.02;4.88;;;21.30;99.90;;;;;;5072554;28;20042;-87
2022/04/22 14:04:04;;;;;;;12.02;5.13;;;20.80;99.90;;;;;;5055733;28;20531;-87
2022/04/22 14:06:30;;;;;;;7.32;5.30;;;20.10;99.90;;;;;;5069170;28;20123;-86
2022/04/22 14:08:55;;;;;;;6.68;5.15;;;19.90;99.90;;;;;;5063295;28;20123;-86
2022/04/22 14:11:21;;;;;;;8.10;5.43;;;19.40;99.90;;;;;;5053399;28;20036;-86